createdAt,value
2018-06-22T00:02:11.667Z,98.80
2018-06-22T00:04:40.119Z,99.60
2018-06-22T00:07:08.542Z,99.40
2018-06-22T00:09:36.974Z,99.50
2018-06-22T00:12:05.419Z,99.50
2018-06-22T00:14:33.882Z,99.40
2018-06-22T00:17:02.321Z,99.70
2018-06-22T00:19:30.745Z,99.70
2018-06-22T00:24:27.332Z,99.70
2018-06-22T00:26:55.795Z,99.90
2018-06-22T00:29:24.257Z,99.90
2018-06-22T00:31:52.677Z,99.90
2018-06-22T00:34:21.114Z,99.90
2018-06-22T00:36:49.531Z,99.90
2018-06-22T00:39:17.945Z,99.90
2018-06-22T00:41:46.361Z,99.90
2018-06-22T00:44:14.765Z,99.90
2018-06-22T00:46:43.178Z,99.90
2018-06-22T00:49:11.594Z,99.90
2018-06-22T00:54:13.904Z,99.90
2018-06-22T00:56:42.330Z,99.90
2018-06-22T00:59:11.354Z,99.90
2018-06-22T01:01:39.826Z,99.90
2018-06-22T01:04:08.772Z,99.90
2018-06-22T01:06:37.302Z,99.90
2018-06-22T01:11:35.849Z,99.90
2018-06-22T01:14:04.547Z,99.90
2018-06-22T01:16:33.035Z,99.90
2018-06-22T01:19:01.495Z,99.90
2018-06-22T01:21:29.994Z,99.90
2018-06-22T01:23:58.454Z,99.90
2018-06-22T01:26:26.954Z,99.90
2018-06-22T01:29:00.767Z,99.90
2018-06-22T01:31:29.269Z,99.90
2018-06-22T01:33:57.943Z,99.90
2018-06-22T01:36:26.617Z,99.90
2018-06-22T01:38:55.086Z,99.90
2018-06-22T01:41:23.844Z,99.90
2018-06-22T01:43:52.310Z,99.90
2018-06-22T01:46:20.822Z,99.90
2018-06-22T01:48:49.469Z,99.90
2018-06-22T01:51:17.994Z,99.90
2018-06-22T01:53:46.616Z,99.90
2018-06-22T01:56:15.087Z,99.90
2018-06-22T01:58:43.545Z,99.90
2018-06-22T02:01:12.042Z,99.90
2018-06-22T02:03:40.506Z,99.90
2018-06-22T02:06:08.986Z,99.90
2018-06-22T02:08:37.430Z,99.90
2018-06-22T02:11:05.973Z,99.90
2018-06-22T02:13:34.435Z,99.90
2018-06-22T02:16:03.114Z,99.90
2018-06-22T02:18:31.597Z,99.90
2018-06-22T02:21:00.158Z,99.90
2018-06-22T02:23:28.622Z,99.90
2018-06-22T02:25:57.121Z,99.90
2018-06-22T02:28:25.653Z,99.90
2018-06-22T02:30:54.109Z,99.90
2018-06-22T02:33:22.588Z,99.90
2018-06-22T02:35:51.062Z,99.90
2018-06-22T02:38:19.555Z,99.90
2018-06-22T02:40:48.050Z,99.90
2018-06-22T02:43:16.533Z,99.90
2018-06-22T02:45:44.990Z,99.90
2018-06-22T02:48:13.474Z,99.90
2018-06-22T02:50:41.979Z,99.90
2018-06-22T02:55:38.713Z,99.90
2018-06-22T02:58:07.194Z,99.90
2018-06-22T03:00:35.677Z,99.90
2018-06-22T03:03:04.166Z,99.90
2018-06-22T03:05:32.626Z,99.90
2018-06-22T03:08:01.095Z,99.90
2018-06-22T03:10:29.564Z,99.90
2018-06-22T03:12:58.044Z,99.90
2018-06-22T03:15:26.469Z,99.90
2018-06-22T03:17:54.973Z,99.90
2018-06-22T03:20:23.365Z,99.90
2018-06-22T03:22:51.770Z,99.90
2018-06-22T03:25:20.169Z,99.90
2018-06-22T03:27:48.619Z,99.90
2018-06-22T03:30:17.035Z,99.90
2018-06-22T03:32:45.449Z,99.90
2018-06-22T03:37:41.951Z,99.90
2018-06-22T03:40:10.350Z,99.90
2018-06-22T03:42:38.794Z,99.90
2018-06-22T03:45:07.214Z,99.90
2018-06-22T03:47:35.661Z,99.90
2018-06-22T03:50:04.141Z,99.90
2018-06-22T03:52:32.585Z,99.90
2018-06-22T03:55:00.988Z,99.90
2018-06-22T03:57:29.446Z,99.90
2018-06-22T03:59:57.849Z,99.90
2018-06-22T04:02:26.275Z,99.90
2018-06-22T04:04:54.683Z,99.90
2018-06-22T04:07:23.103Z,99.90
2018-06-22T04:09:51.514Z,99.90
2018-06-22T04:14:48.054Z,99.90
2018-06-22T04:17:16.486Z,99.90
2018-06-22T04:19:44.929Z,99.90
2018-06-22T04:22:13.394Z,99.90
2018-06-22T04:24:41.828Z,99.90
2018-06-22T04:27:10.334Z,99.90
2018-06-22T04:29:38.790Z,99.90
2018-06-22T04:32:07.218Z,99.90
2018-06-22T04:34:35.650Z,99.90
2018-06-22T04:37:04.058Z,99.90
2018-06-22T04:39:32.502Z,99.90
2018-06-22T04:42:00.950Z,99.90
2018-06-22T04:44:29.394Z,99.90
2018-06-22T04:46:57.803Z,99.90
2018-06-22T04:49:26.249Z,99.90
2018-06-22T04:51:54.930Z,99.90
2018-06-22T04:54:23.380Z,99.90
2018-06-22T04:56:51.788Z,99.90
2018-06-22T04:59:20.236Z,99.90
2018-06-22T05:01:48.662Z,99.90
2018-06-22T05:04:17.119Z,99.90
2018-06-22T05:06:45.548Z,99.90
2018-06-22T05:09:14.022Z,99.90
2018-06-22T05:11:42.416Z,99.90
2018-06-22T05:14:10.849Z,99.90
2018-06-22T05:16:39.258Z,99.90
2018-06-22T05:21:35.793Z,99.90
2018-06-22T05:24:04.244Z,99.90
2018-06-22T05:26:32.752Z,99.90
2018-06-22T05:29:01.177Z,99.90
2018-06-22T05:31:29.650Z,99.90
2018-06-22T05:33:58.101Z,99.90
2018-06-22T05:36:26.491Z,99.90
2018-06-22T05:38:54.958Z,99.90
2018-06-22T05:41:23.397Z,99.90
2018-06-22T05:43:52.167Z,99.90
2018-06-22T05:46:20.593Z,99.90
2018-06-22T05:48:49.074Z,99.90
2018-06-22T05:51:17.492Z,99.90
2018-06-22T05:53:45.934Z,99.80
2018-06-22T05:56:14.349Z,99.30
2018-06-22T05:58:42.795Z,99.90
2018-06-22T06:01:11.221Z,99.90
2018-06-22T06:03:39.777Z,99.10
2018-06-22T06:06:08.107Z,99.90
2018-06-22T06:08:36.546Z,98.80
2018-06-22T06:11:05.048Z,98.50
2018-06-22T06:16:01.674Z,99.50
2018-06-22T06:18:30.133Z,98.20
2018-06-22T06:20:58.555Z,97.80
2018-06-22T06:23:27.005Z,97.60
2018-06-22T06:25:55.430Z,96.40
2018-06-22T06:28:23.866Z,96.90
2018-06-22T06:30:52.314Z,96.70
2018-06-22T06:33:20.727Z,96.30
2018-06-22T06:35:49.195Z,94.90
2018-06-22T06:40:45.722Z,95.30
2018-06-22T06:43:14.127Z,95.90
2018-06-22T06:45:42.585Z,96.70
2018-06-22T06:48:10.994Z,95.70
2018-06-22T06:50:39.418Z,95.20
2018-06-22T06:53:07.846Z,95.20
2018-06-22T06:58:04.501Z,94.40
2018-06-22T07:00:32.950Z,92.20
2018-06-22T07:03:01.481Z,92.50
2018-06-22T07:05:29.914Z,92.40
2018-06-22T07:07:58.357Z,91.70
2018-06-22T07:10:26.775Z,90.10
2018-06-22T07:12:55.234Z,90.50
2018-06-22T07:15:23.677Z,90.70
2018-06-22T07:17:52.107Z,90.70
2018-06-22T07:20:20.541Z,90.60
2018-06-22T07:22:48.995Z,87.20
2018-06-22T07:27:45.608Z,83.40
2018-06-22T07:30:14.053Z,85.00
2018-06-22T07:32:42.465Z,85.30
2018-06-22T07:35:10.914Z,85.90
2018-06-22T07:37:39.326Z,86.20
2018-06-22T07:40:07.781Z,83.50
2018-06-22T07:42:36.189Z,82.60
2018-06-22T07:45:04.842Z,85.20
2018-06-22T07:47:33.249Z,81.20
2018-06-22T07:50:01.702Z,80.20
2018-06-22T07:52:30.130Z,81.20
2018-06-22T07:54:58.562Z,78.20
2018-06-22T07:57:26.990Z,78.10
2018-06-22T07:59:55.425Z,78.10
2018-06-22T08:02:23.860Z,76.10
2018-06-22T08:07:20.414Z,79.50
2018-06-22T08:12:17.162Z,76.90
2018-06-22T08:17:13.750Z,75.70
2018-06-22T08:19:42.186Z,79.10
2018-06-22T08:22:10.609Z,77.50
2018-06-22T08:24:39.064Z,80.30
2018-06-22T08:27:07.501Z,83.80
2018-06-22T08:29:35.905Z,82.20
2018-06-22T08:32:04.418Z,78.70
2018-06-22T08:34:32.801Z,81.10
2018-06-22T08:37:01.241Z,80.00
2018-06-22T08:39:29.659Z,80.00
2018-06-22T08:41:58.170Z,77.60
2018-06-22T08:44:26.478Z,76.90
2018-06-22T08:46:54.924Z,78.80
2018-06-22T08:49:23.357Z,79.20
2018-06-22T08:51:51.788Z,79.80
2018-06-22T08:54:20.222Z,79.60
2018-06-22T08:56:48.685Z,79.10
2018-06-22T09:01:45.258Z,79.90
2018-06-22T09:04:13.698Z,79.20
2018-06-22T09:06:42.162Z,79.80
2018-06-22T09:09:10.601Z,79.60
2018-06-22T09:11:39.061Z,77.70
2018-06-22T09:14:07.488Z,78.60
2018-06-22T09:16:35.942Z,79.60
2018-06-22T09:19:04.374Z,78.40
2018-06-22T09:21:32.805Z,76.70
2018-06-22T09:24:01.257Z,80.50
2018-06-22T09:26:29.895Z,78.70
2018-06-22T09:28:58.442Z,76.00
2018-06-22T09:31:27.235Z,77.50
2018-06-22T09:33:55.689Z,76.90
2018-06-22T09:38:52.269Z,76.70
2018-06-22T09:41:20.738Z,79.90
2018-06-22T09:43:49.206Z,77.20
2018-06-22T09:48:46.150Z,76.30
2018-06-22T09:51:14.614Z,70.80
2018-06-22T09:53:43.037Z,70.70
2018-06-22T09:56:11.515Z,72.70
2018-06-22T09:58:39.947Z,65.60
2018-06-22T10:01:08.402Z,66.50
2018-06-22T10:03:36.795Z,68.40
2018-06-22T10:06:05.330Z,65.70
2018-06-22T10:08:33.767Z,62.80
2018-06-22T10:11:02.193Z,61.80
2018-06-22T10:13:30.627Z,62.30
2018-06-22T10:15:59.082Z,66.10
2018-06-22T10:18:27.486Z,66.50
2018-06-22T10:20:55.938Z,67.10
2018-06-22T10:23:24.346Z,58.60
2018-06-22T10:25:52.775Z,59.00
2018-06-22T10:28:21.197Z,66.20
2018-06-22T10:30:49.628Z,65.00
2018-06-22T10:33:18.045Z,66.60
2018-06-22T10:35:46.485Z,62.00
2018-06-22T10:38:14.926Z,59.10
2018-06-22T10:40:43.382Z,59.10
2018-06-22T10:43:11.839Z,57.30
2018-06-22T10:45:40.298Z,61.20
2018-06-22T10:50:36.889Z,68.90
2018-06-22T10:53:05.421Z,63.20
2018-06-22T10:55:33.885Z,62.90
2018-06-22T10:58:02.381Z,60.60
2018-06-22T11:00:30.981Z,59.90
2018-06-22T11:02:59.445Z,62.40
2018-06-22T11:05:27.926Z,57.60
2018-06-22T11:07:56.381Z,57.20
2018-06-22T11:10:24.818Z,53.40
2018-06-22T11:12:53.278Z,54.80
2018-06-22T11:15:21.739Z,54.00
2018-06-22T11:17:50.181Z,52.90
2018-06-22T11:20:18.641Z,53.40
2018-06-22T11:22:47.101Z,57.00
2018-06-22T11:25:15.529Z,50.50
2018-06-22T11:27:43.989Z,48.50
2018-06-22T11:30:12.421Z,50.70
2018-06-22T11:35:09.081Z,59.10
2018-06-22T11:40:05.701Z,57.70
2018-06-22T11:42:34.137Z,59.40
2018-06-22T11:45:02.770Z,63.40
2018-06-22T11:47:31.241Z,60.60
2018-06-22T11:49:59.675Z,59.60
2018-06-22T11:52:28.154Z,59.40
2018-06-22T11:54:56.592Z,58.20
2018-06-22T11:57:25.045Z,60.00
2018-06-22T11:59:53.492Z,57.70
2018-06-22T12:02:21.976Z,59.30
2018-06-22T12:04:50.441Z,60.90
2018-06-22T12:07:18.897Z,64.00
2018-06-22T12:09:47.310Z,67.90
2018-06-22T12:12:15.761Z,68.40
2018-06-22T12:14:44.210Z,69.10
2018-06-22T12:17:12.655Z,68.40
2018-06-22T12:19:41.076Z,70.20
2018-06-22T12:22:09.546Z,68.00
2018-06-22T12:24:38.002Z,64.50
2018-06-22T12:27:06.474Z,64.60
2018-06-22T12:29:34.916Z,63.60
2018-06-22T12:32:03.333Z,64.60
2018-06-22T12:34:31.826Z,64.60
2018-06-22T12:37:00.254Z,67.70
2018-06-22T12:39:28.744Z,68.10
2018-06-22T12:44:25.291Z,67.60
2018-06-22T12:46:53.699Z,68.20
2018-06-22T12:49:22.145Z,70.10
2018-06-22T12:51:50.610Z,71.30
2018-06-22T12:54:19.040Z,71.20
2018-06-22T12:56:47.469Z,67.70
2018-06-22T12:59:15.915Z,66.50
2018-06-22T13:01:44.325Z,64.50
2018-06-22T13:04:12.770Z,62.30
2018-06-22T13:06:41.213Z,63.30
2018-06-22T13:09:10.860Z,67.10
2018-06-22T13:11:39.298Z,61.30
2018-06-22T13:14:08.198Z,61.00
2018-06-22T13:16:36.654Z,57.60
2018-06-22T13:19:05.323Z,55.80
2018-06-22T13:21:42.641Z,59.80
2018-06-22T13:24:11.065Z,59.70
2018-06-22T13:26:39.485Z,59.30
2018-06-22T13:29:07.925Z,59.40
2018-06-22T13:31:36.445Z,60.00
2018-06-22T13:34:04.922Z,57.30
2018-06-22T13:36:33.362Z,57.80
2018-06-22T13:39:01.830Z,58.00
2018-06-22T13:41:30.289Z,57.70
2018-06-22T13:43:58.742Z,57.70
2018-06-22T13:46:27.192Z,56.80
2018-06-22T13:48:55.633Z,58.00
2018-06-22T13:51:24.081Z,55.80
2018-06-22T13:53:52.533Z,53.80
2018-06-22T13:56:20.941Z,55.00
2018-06-22T13:58:49.394Z,55.70
2018-06-22T14:01:17.810Z,58.00
2018-06-22T14:06:25.033Z,58.90
2018-06-22T14:08:53.475Z,53.00
2018-06-22T14:11:21.926Z,51.10
2018-06-22T14:13:50.435Z,57.20
2018-06-22T14:16:18.858Z,59.40
2018-06-22T14:18:47.277Z,58.60
2018-06-22T14:21:15.727Z,55.20
2018-06-22T14:23:44.152Z,56.90
2018-06-22T14:26:12.622Z,61.80
2018-06-22T14:28:41.062Z,60.30
2018-06-22T14:31:09.646Z,62.90
2018-06-22T14:33:38.106Z,62.20
2018-06-22T14:36:07.223Z,64.50
2018-06-22T14:38:35.643Z,63.20
2018-06-22T14:41:04.129Z,62.80
2018-06-22T14:46:00.693Z,62.60
2018-06-22T14:48:29.204Z,64.50
2018-06-22T14:50:57.674Z,62.90
2018-06-22T14:53:31.579Z,64.00
2018-06-22T14:56:05.387Z,62.60
2018-06-22T14:58:39.148Z,65.10
2018-06-22T15:01:12.762Z,67.00
2018-06-22T15:03:46.491Z,64.00
2018-06-22T15:08:48.488Z,68.40
2018-06-22T15:11:17.283Z,67.20
2018-06-22T15:13:47.902Z,69.80
2018-06-22T15:16:16.517Z,68.90
2018-06-22T15:18:45.202Z,63.30
2018-06-22T15:21:13.680Z,64.30
2018-06-22T15:23:42.129Z,66.00
2018-06-22T15:26:10.593Z,64.40
2018-06-22T15:28:38.994Z,61.70
2018-06-22T15:31:07.582Z,64.60
2018-06-22T15:33:41.247Z,60.30
2018-06-22T15:36:15.110Z,55.70
2018-06-22T15:38:48.870Z,53.10
2018-06-22T15:41:22.627Z,57.40
2018-06-22T15:43:56.293Z,57.70
2018-06-22T15:46:30.071Z,51.60
2018-06-22T15:52:39.033Z,52.80
2018-06-22T15:55:12.066Z,57.80
2018-06-22T15:57:40.523Z,60.10
2018-06-22T16:00:10.850Z,61.20
2018-06-22T16:02:44.653Z,63.90
2018-06-22T16:05:13.100Z,61.70
2018-06-22T16:07:41.577Z,63.40
2018-06-22T16:12:39.701Z,63.00
2018-06-22T16:15:14.692Z,61.60
2018-06-22T16:17:48.543Z,64.90
2018-06-22T16:20:22.173Z,61.00
2018-06-22T16:23:54.730Z,66.50
2018-06-22T16:26:28.449Z,67.10
2018-06-22T16:28:56.869Z,66.50
2018-06-22T16:33:55.386Z,64.30
2018-06-22T16:36:24.274Z,62.50
2018-06-22T16:38:52.741Z,66.20
2018-06-22T16:41:21.230Z,64.90
2018-06-22T16:43:49.754Z,65.40
2018-06-22T16:46:18.251Z,66.10
2018-06-22T16:48:46.641Z,67.10
2018-06-22T16:51:15.073Z,66.60
2018-06-22T16:53:43.499Z,67.60
2018-06-22T16:56:11.921Z,68.50
2018-06-22T16:58:41.114Z,68.50
2018-06-22T17:01:10.812Z,70.70
2018-06-22T17:03:39.238Z,69.70
2018-06-22T17:06:09.035Z,71.80
2018-06-22T17:08:42.678Z,73.70
2018-06-22T17:11:16.584Z,74.80
2018-06-22T17:13:50.182Z,76.50
2018-06-22T17:16:23.762Z,72.10
2018-06-22T17:18:53.833Z,75.30
2018-06-22T17:21:22.693Z,74.00
2018-06-22T17:23:51.254Z,75.80
2018-06-22T17:26:19.707Z,76.50
2018-06-22T17:28:48.217Z,75.60
2018-06-22T17:31:16.649Z,73.50
2018-06-22T17:33:45.074Z,74.50
2018-06-22T17:36:13.556Z,72.80
2018-06-22T17:38:42.006Z,72.10
2018-06-22T17:41:10.418Z,74.80
2018-06-22T17:43:38.894Z,74.40
2018-06-22T17:46:07.415Z,74.80
2018-06-22T17:48:35.800Z,73.70
2018-06-22T17:51:04.234Z,76.30
2018-06-22T17:53:32.675Z,75.40
2018-06-22T17:56:01.097Z,73.70
2018-06-22T17:58:29.557Z,75.70
2018-06-22T18:01:03.442Z,74.50
2018-06-22T18:03:37.712Z,76.70
2018-06-22T18:06:11.585Z,77.10
2018-06-22T18:08:45.981Z,76.20
2018-06-22T18:11:19.691Z,75.10
2018-06-22T18:13:48.113Z,77.70
2018-06-22T18:16:16.519Z,79.00
2018-06-22T18:18:44.929Z,78.50
2018-06-22T18:21:13.374Z,80.90
2018-06-22T18:23:41.829Z,83.00
2018-06-22T18:26:10.314Z,84.30
2018-06-22T18:28:38.752Z,84.90
2018-06-22T18:31:07.866Z,86.10
2018-06-22T18:33:36.328Z,87.30
2018-06-22T18:36:04.961Z,88.10
2018-06-22T18:38:33.405Z,90.00
2018-06-22T18:41:01.865Z,90.10
2018-06-22T18:43:35.661Z,90.80
2018-06-22T18:46:04.177Z,91.00
2018-06-22T18:48:32.642Z,91.40
2018-06-22T18:51:01.138Z,91.70
2018-06-22T18:53:35.003Z,92.80
2018-06-22T18:56:08.863Z,91.10
2018-06-22T18:58:42.590Z,92.20
2018-06-22T19:03:46.774Z,93.10
2018-06-22T19:06:15.269Z,93.80
2018-06-22T19:08:43.777Z,94.20
2018-06-22T19:11:12.270Z,94.40
2018-06-22T19:16:09.284Z,95.40
2018-06-22T19:18:37.826Z,95.60
2018-06-22T19:21:06.999Z,96.00
2018-06-22T19:23:35.450Z,96.40
2018-06-22T19:26:03.942Z,96.80
2018-06-22T19:28:32.398Z,96.50
2018-06-22T19:31:00.869Z,97.00
2018-06-22T19:33:29.439Z,97.10
2018-06-22T19:35:57.969Z,96.90
2018-06-22T19:38:26.415Z,97.50
2018-06-22T19:40:54.916Z,97.50
2018-06-22T19:44:29.195Z,97.70
2018-06-22T19:47:03.028Z,98.20
2018-06-22T19:49:36.901Z,98.50
2018-06-22T19:52:10.743Z,98.80
2018-06-22T19:54:39.211Z,99.40
2018-06-22T19:57:07.695Z,99.20
2018-06-22T19:59:36.157Z,99.60
2018-06-22T20:02:05.494Z,99.90
2018-06-22T20:04:33.953Z,99.80
2018-06-22T20:07:02.411Z,99.20
2018-06-22T20:09:30.857Z,98.70
2018-06-22T20:11:59.313Z,98.50
2018-06-22T20:14:27.777Z,98.10
2018-06-22T20:16:56.324Z,98.00
2018-06-22T20:19:24.950Z,97.80
2018-06-22T20:21:53.427Z,98.00
2018-06-22T20:24:27.205Z,98.00
2018-06-22T20:26:55.687Z,97.60
2018-06-22T20:29:24.302Z,97.60
2018-06-22T20:31:53.062Z,96.90
2018-06-22T20:34:26.893Z,97.10
2018-06-22T20:37:00.705Z,97.30
2018-06-22T20:39:34.394Z,97.80
2018-06-22T20:42:08.230Z,98.00
2018-06-22T20:44:42.069Z,99.00
2018-06-22T20:47:15.933Z,99.90
2018-06-22T20:50:49.378Z,99.90
2018-06-22T20:53:17.822Z,99.90
2018-06-22T20:55:46.282Z,99.90
2018-06-22T20:58:14.744Z,99.90
2018-06-22T21:00:43.182Z,99.90
2018-06-22T21:05:39.808Z,99.90
2018-06-22T21:08:08.266Z,99.90
2018-06-22T21:10:36.698Z,99.90
2018-06-22T21:15:33.381Z,99.90
2018-06-22T21:18:01.902Z,99.90
2018-06-22T21:20:30.360Z,99.90
2018-06-22T21:22:58.805Z,99.90
2018-06-22T21:25:27.286Z,99.90
2018-06-22T21:28:01.082Z,99.90
2018-06-22T21:33:08.325Z,99.90
2018-06-22T21:35:42.030Z,99.90
2018-06-22T21:38:15.814Z,99.90
2018-06-22T21:40:44.317Z,99.90
2018-06-22T21:43:12.775Z,99.90
2018-06-22T21:45:41.255Z,99.90
2018-06-22T21:48:09.729Z,99.90
2018-06-22T21:50:38.199Z,99.90
2018-06-22T21:53:06.657Z,99.90
2018-06-22T21:55:35.111Z,99.90
2018-06-22T21:58:03.654Z,99.90
2018-06-22T22:00:33.819Z,99.90
2018-06-22T22:03:02.756Z,99.90
2018-06-22T22:05:31.723Z,99.90
2018-06-22T22:08:00.385Z,99.90
2018-06-22T22:10:34.001Z,99.90
2018-06-22T22:13:02.458Z,99.90
2018-06-22T22:15:30.882Z,99.90
2018-06-22T22:17:59.381Z,99.90
2018-06-22T22:20:27.825Z,99.90
2018-06-22T22:22:56.265Z,99.90
2018-06-22T22:25:24.732Z,99.90
2018-06-22T22:27:53.169Z,99.90
2018-06-22T22:30:21.662Z,99.90
2018-06-22T22:32:50.106Z,99.90
2018-06-22T22:35:18.556Z,99.90
2018-06-22T22:37:47.003Z,99.90
2018-06-22T22:42:43.594Z,99.90
2018-06-22T22:45:12.066Z,99.90
2018-06-22T22:47:40.502Z,99.90
2018-06-22T22:50:08.974Z,99.90
2018-06-22T22:52:37.418Z,99.90
2018-06-22T22:55:05.969Z,99.90
2018-06-22T22:57:34.406Z,99.90
2018-06-22T23:00:02.893Z,99.90
2018-06-22T23:02:31.333Z,99.90
2018-06-22T23:04:59.793Z,99.90
2018-06-22T23:07:28.230Z,99.90
2018-06-22T23:09:56.675Z,99.90
2018-06-22T23:12:25.145Z,99.90
2018-06-22T23:14:53.608Z,99.90
2018-06-22T23:17:22.021Z,99.90
2018-06-22T23:19:50.474Z,99.90
2018-06-22T23:22:24.507Z,99.90
2018-06-22T23:24:52.953Z,99.90
2018-06-22T23:27:21.404Z,99.90
2018-06-22T23:29:49.849Z,99.90
2018-06-22T23:32:18.262Z,99.90
2018-06-22T23:34:46.710Z,99.90
2018-06-22T23:37:15.121Z,99.90
2018-06-22T23:39:43.562Z,99.90
2018-06-22T23:42:11.962Z,99.90
2018-06-22T23:44:40.389Z,99.90
2018-06-22T23:47:08.806Z,99.90
2018-06-22T23:49:37.309Z,99.90
2018-06-22T23:52:05.706Z,99.90
2018-06-22T23:54:34.149Z,99.90
2018-06-22T23:57:02.660Z,99.90
2018-06-22T23:59:31.101Z,99.90
